Rocky Mount, North Carolina
Current Conditions -  °F | °C
As of 3:53 PM on Thursday 18 Dec 2014 (Local Time) from KRWI Reporting Station
Overcast Overcast  
Wind Chill: 49°   Ceiling: 9500
Heat Index: 49°   Visibility: 10mi
Dew Point: 26°   Wind: 3mph
Humidity: 41%   Direction: 320°NW
Pressure: 30.09"   Gusts: NA
Location:  35.95°N, 77.79°W
Report Text: KRWI 182053Z AUTO 32003KT 10SM OVC095 09/M03 A3009 RMK AO2 SLP191 T00941033 55014
Loading
Personal Weather Stations






























Interactive Weather Map New forecast layout! Learn more

10-Day Weather Forecast

Advertisements
Track Severe Weather on mobile